Time;durP1;ratioP1;P1;durP2;ratioP2;P2;SDS_P1;SDS_P2;PMS_P1;PMS_P2;Temp;Humidity;BMP_temperature;BMP_pressure;BME280_temperature;BME280_humidity;BME280_pressure;Samples;Min_cycle;Max_cycle;Signal;HPM_P1;HPM_P2
2022/07/03 00:02:11;;;;;;;5.90;2.28;;;18.10;99.90;;;;;;5075414;28;20044;-76
2022/07/03 00:04:37;;;;;;;5.97;2.10;;;18.10;99.90;;;;;;5088116;28;20047;-73
2022/07/03 00:07:04;;;;;;;4.78;2.50;;;18.00;99.90;;;;;;5069161;28;20036;-78
2022/07/03 00:09:29;;;;;;;6.95;2.75;;;18.00;99.90;;;;;;5045427;28;20110;-78
2022/07/03 00:11:55;;;;;;;7.75;2.35;;;18.00;99.90;;;;;;5012754;28;21731;-76
2022/07/03 00:14:21;;;;;;;5.50;2.17;;;17.90;99.90;;;;;;5029650;28;20048;-77
2022/07/03 00:16:47;;;;;;;5.57;2.30;;;17.90;99.90;;;;;;5045708;28;20398;-79
2022/07/03 00:19:12;;;;;;;6.25;2.20;;;17.80;99.90;;;;;;5074908;28;20075;-78
2022/07/03 00:21:45;;;;;;;5.28;2.22;;;17.80;99.90;;;;;;5045344;28;20124;-79
2022/07/03 00:24:26;;;;;;;4.60;2.30;;;17.70;99.90;;;;;;5045793;28;20094;-78
2022/07/03 00:26:53;;;;;;;7.75;2.30;;;17.70;99.90;;;;;;5064163;28;20041;-79
2022/07/03 00:29:22;;;;;;;9.23;2.17;;;17.60;99.90;;;;;;5027055;28;20048;-77
2022/07/03 00:31:48;;;;;;;7.70;2.45;;;17.60;99.90;;;;;;5043290;28;20055;-81
2022/07/03 00:34:17;;;;;;;8.18;2.60;;;17.60;99.90;;;;;;5037058;28;20148;-78
2022/07/03 00:36:48;;;;;;;5.22;2.60;;;17.50;99.90;;;;;;5061077;28;20156;-75
2022/07/03 00:39:14;;;;;;;4.93;2.15;;;17.50;99.90;;;;;;5029870;28;20098;-79
2022/07/03 00:41:43;;;;;;;5.50;2.60;;;17.40;99.90;;;;;;5076147;28;20036;-80
2022/07/03 00:44:09;;;;;;;7.40;2.65;;;17.40;99.90;;;;;;5047782;28;20040;-79
2022/07/03 00:46:39;;;;;;;3.78;2.30;;;17.20;99.90;;;;;;5029535;28;20095;-80
2022/07/03 00:49:08;;;;;;;5.20;2.53;;;17.30;99.90;;;;;;5022560;28;20029;-80
2022/07/03 00:51:37;;;;;;;7.07;2.60;;;17.30;99.90;;;;;;5046504;28;20142;-79
2022/07/03 00:54:04;;;;;;;8.55;2.67;;;17.20;99.90;;;;;;5041959;28;20103;-80
2022/07/03 00:56:31;;;;;;;5.55;2.67;;;17.20;99.90;;;;;;5076972;28;20075;-79
2022/07/03 00:58:59;;;;;;;7.68;2.60;;;17.10;99.90;;;;;;5031248;28;20051;-79
2022/07/03 01:01:29;;;;;;;7.63;2.72;;;17.10;99.90;;;;;;5028915;28;20040;-76
2022/07/03 01:04:16;;;;;;;6.60;2.97;;;17.10;99.90;;;;;;5030682;28;20028;-77
2022/07/03 01:06:58;;;;;;;6.65;2.83;;;17.00;99.90;;;;;;5078096;28;20112;-77
2022/07/03 01:09:51;;;;;;;5.07;2.80;;;16.90;99.90;;;;;;5043290;28;20040;-79
2022/07/03 01:12:33;;;;;;;5.55;2.65;;;16.90;99.90;;;;;;5029855;28;20105;-77
2022/07/03 01:15:11;;;;;;;7.68;3.30;;;16.80;99.90;;;;;;5045727;28;20040;-79
2022/07/03 01:17:48;;;;;;;4.68;2.72;;;16.80;99.90;;;;;;5043781;28;20032;-76
2022/07/03 01:20:18;;;;;;;5.68;3.00;;;16.70;99.90;;;;;;5063082;28;20052;-78
2022/07/03 01:26:39;;;;;;;6.47;3.38;;;16.60;99.90;;;;;;5060243;28;20480;-75
2022/07/03 01:29:09;;;;;;;7.53;3.20;;;16.60;99.90;;;;;;5030578;28;20036;-80
2022/07/03 01:31:38;;;;;;;4.85;3.15;;;16.50;99.90;;;;;;5032738;28;20074;-75
2022/07/03 01:34:09;;;;;;;6.10;2.97;;;16.60;99.90;;;;;;5041349;28;20045;-78
2022/07/03 01:36:40;;;;;;;6.97;3.35;;;16.60;99.90;;;;;;5038805;28;20045;-78
2022/07/03 01:39:09;;;;;;;8.90;3.33;;;16.50;99.90;;;;;;5049426;28;20120;-77
2022/07/03 01:41:37;;;;;;;5.80;3.28;;;16.50;99.90;;;;;;5082160;28;20045;-77
2022/07/03 01:44:03;;;;;;;8.88;3.40;;;16.50;99.90;;;;;;5031160;28;20052;-77
2022/07/03 01:46:32;;;;;;;4.63;3.28;;;16.40;99.90;;;;;;5029508;28;20542;-78
2022/07/03 01:48:59;;;;;;;4.88;3.30;;;16.40;99.90;;;;;;5061718;28;20592;-78
2022/07/03 01:51:26;;;;;;;6.32;3.10;;;16.40;99.90;;;;;;5061372;28;20048;-79
2022/07/03 01:53:53;;;;;;;4.13;3.00;;;16.30;99.90;;;;;;5061871;28;20041;-77
2022/07/03 01:56:21;;;;;;;5.30;3.45;;;16.30;99.90;;;;;;5029198;28;20064;-78
2022/07/03 01:58:48;;;;;;;5.38;3.05;;;16.30;99.90;;;;;;5041286;28;20045;-79
2022/07/03 02:01:37;;;;;;;5.50;3.28;;;16.20;99.90;;;;;;5081234;28;20033;-77
2022/07/03 02:04:28;;;;;;;7.13;3.08;;;16.20;99.90;;;;;;5086101;28;20168;-78
2022/07/03 02:06:57;;;;;;;5.30;3.40;;;16.10;99.90;;;;;;5033948;28;20417;-77
2022/07/03 02:09:36;;;;;;;6.13;3.20;;;16.10;99.90;;;;;;5046666;28;20072;-76
2022/07/03 02:12:03;;;;;;;7.68;2.90;;;16.10;99.90;;;;;;5049347;28;20044;-77
2022/07/03 02:14:35;;;;;;;8.57;3.25;;;16.00;99.90;;;;;;5033795;28;20036;-77
2022/07/03 02:17:17;;;;;;;11.40;3.97;;;16.00;99.90;;;;;;5046588;28;20067;-77
2022/07/03 02:19:58;;;;;;;5.88;3.72;;;16.00;99.90;;;;;;5042131;28;20084;-77
2022/07/03 02:22:51;;;;;;;7.97;4.05;;;15.90;99.90;;;;;;5064391;28;20140;-80
2022/07/03 02:25:22;;;;;;;12.30;5.05;;;15.90;99.90;;;;;;5046103;28;20132;-77
2022/07/03 02:28:18;;;;;;;8.55;4.10;;;15.90;99.90;;;;;;5052541;28;20115;-76
2022/07/03 02:30:49;;;;;;;5.30;3.90;;;15.80;99.90;;;;;;5043044;28;20065;-77
2022/07/03 02:33:21;;;;;;;7.53;4.25;;;15.80;99.90;;;;;;5068210;28;20048;-77
2022/07/03 02:35:48;;;;;;;8.70;4.18;;;15.80;99.90;;;;;;5078384;28;20041;-80
2022/07/03 02:38:19;;;;;;;4.75;4.07;;;15.80;99.90;;;;;;5040453;28;20059;-80
2022/07/03 02:41:02;;;;;;;7.93;4.20;;;15.80;99.90;;;;;;5053314;28;20061;-80
2022/07/03 02:43:34;;;;;;;10.75;4.15;;;15.80;99.90;;;;;;5052531;28;20069;-77
2022/07/03 02:49:19;;;;;;;10.48;4.32;;;15.80;99.90;;;;;;5078777;28;20090;-74
2022/07/03 02:51:54;;;;;;;5.47;4.05;;;15.80;99.90;;;;;;5054562;28;21318;-75
2022/07/03 02:54:20;;;;;;;6.93;3.97;;;15.60;99.90;;;;;;5072908;28;20063;-74
2022/07/03 02:56:54;;;;;;;6.03;3.75;;;15.60;99.90;;;;;;5051536;28;20044;-77
2022/07/03 02:59:45;;;;;;;14.75;4.25;;;15.50;99.90;;;;;;5056152;28;20118;-78
2022/07/03 03:02:42;;;;;;;7.47;4.00;;;15.40;99.90;;;;;;5080971;28;20080;-76
2022/07/03 03:05:34;;;;;;;5.90;3.67;;;15.40;99.90;;;;;;5053664;28;20045;-76
2022/07/03 03:08:20;;;;;;;5.82;3.80;;;15.30;99.90;;;;;;5076402;28;20045;-78
2022/07/03 03:10:49;;;;;;;6.60;4.00;;;15.20;99.90;;;;;;5042835;28;20144;-80
2022/07/03 03:13:19;;;;;;;7.90;3.80;;;15.20;99.90;;;;;;5040865;28;20041;-78
2022/07/03 03:16:07;;;;;;;5.30;4.00;;;15.10;99.90;;;;;;5047928;28;20041;-77
2022/07/03 03:18:39;;;;;;;5.13;4.15;;;15.10;99.90;;;;;;5048176;28;20128;-76
2022/07/03 03:21:15;;;;;;;10.25;3.95;;;15.00;99.90;;;;;;5066544;28;20124;-77
2022/07/03 03:23:49;;;;;;;9.73;3.90;;;15.00;99.90;;;;;;5050929;28;20114;-76
2022/07/03 03:26:21;;;;;;;6.32;3.95;;;15.10;99.90;;;;;;5049970;28;20384;-79
2022/07/03 03:28:49;;;;;;;4.68;4.00;;;15.10;99.90;;;;;;5051088;28;20040;-78
2022/07/03 03:31:15;;;;;;;5.65;3.65;;;15.10;99.90;;;;;;5083035;28;20120;-78
2022/07/03 03:33:44;;;;;;;9.60;4.30;;;15.10;99.90;;;;;;5046438;28;20348;-76
2022/07/03 03:36:11;;;;;;;6.35;4.10;;;15.20;99.90;;;;;;5080483;28;20368;-76
2022/07/03 03:38:55;;;;;;;7.40;4.20;;;15.20;99.90;;;;;;5037038;28;20146;-78
2022/07/03 03:41:21;;;;;;;8.83;4.20;;;15.20;99.90;;;;;;5049404;28;20040;-76
2022/07/03 03:43:46;;;;;;;8.90;4.57;;;15.20;99.90;;;;;;5035244;28;20086;-77
2022/07/03 03:46:14;;;;;;;6.90;3.92;;;15.20;99.90;;;;;;5030279;28;20032;-80
2022/07/03 03:48:40;;;;;;;6.30;4.30;;;15.20;99.90;;;;;;5029361;28;20480;-79
2022/07/03 03:51:07;;;;;;;7.53;4.82;;;15.20;99.90;;;;;;5017677;28;20040;-79
2022/07/03 03:53:33;;;;;;;8.30;4.55;;;15.30;99.90;;;;;;5049534;28;20185;-79
2022/07/03 03:56:04;;;;;;;7.20;4.65;;;15.30;99.90;;;;;;5029884;28;20083;-77
2022/07/03 03:58:32;;;;;;;6.00;4.30;;;15.30;99.90;;;;;;5069519;28;20040;-78
2022/07/03 04:00:59;;;;;;;6.22;4.43;;;15.30;99.90;;;;;;5058185;28;20055;-80
2022/07/03 04:03:26;;;;;;;7.95;4.25;;;15.30;99.90;;;;;;5033194;28;20090;-79
2022/07/03 04:05:53;;;;;;;7.20;4.32;;;15.30;99.90;;;;;;5032657;28;20095;-81
2022/07/03 04:11:59;;;;;;;6.25;4.05;;;15.20;99.90;;;;;;5067308;28;20096;-73
2022/07/03 04:14:25;;;;;;;6.32;4.30;;;15.30;99.90;;;;;;5057471;28;20028;-73
2022/07/03 04:16:51;;;;;;;9.50;4.65;;;15.30;99.90;;;;;;5073297;28;20040;-74
2022/07/03 04:19:16;;;;;;;5.20;4.70;;;15.40;99.90;;;;;;5040078;28;20124;-76
2022/07/03 04:21:42;;;;;;;7.60;4.80;;;15.50;99.90;;;;;;5031015;28;20053;-76
2022/07/03 04:24:08;;;;;;;10.95;4.93;;;15.60;99.90;;;;;;5031960;28;20032;-77
2022/07/03 04:26:34;;;;;;;8.77;4.70;;;15.70;99.90;;;;;;5080134;28;20032;-77
2022/07/03 04:29:00;;;;;;;7.28;4.18;;;15.80;99.90;;;;;;5034481;28;20036;-75
2022/07/03 04:31:26;;;;;;;9.63;4.50;;;15.90;99.90;;;;;;5027227;28;20037;-77
2022/07/03 04:33:51;;;;;;;10.45;5.03;;;16.10;99.90;;;;;;5044764;28;20146;-78
2022/07/03 04:36:17;;;;;;;8.35;4.60;;;16.20;99.90;;;;;;5037112;28;20045;-79
2022/07/03 04:38:46;;;;;;;5.10;4.05;;;16.80;99.90;;;;;;5032017;28;20040;-75
2022/07/03 04:41:11;;;;;;;4.57;4.10;;;17.60;99.90;;;;;;5048783;28;20040;-77
2022/07/03 04:43:37;;;;;;;11.50;3.97;;;18.40;99.90;;;;;;5045449;28;20072;-76
2022/07/03 04:46:06;;;;;;;6.63;4.20;;;18.80;99.90;;;;;;5076301;28;20048;-78
2022/07/03 04:48:31;;;;;;;7.93;4.70;;;18.50;99.90;;;;;;5077279;28;20037;-78
2022/07/03 04:50:58;;;;;;;14.35;4.47;;;18.80;99.90;;;;;;5082345;28;20051;-77
2022/07/03 04:53:24;;;;;;;5.55;4.15;;;19.30;99.90;;;;;;5014895;28;20048;-75
2022/07/03 04:55:49;;;;;;;10.25;3.80;;;19.70;99.90;;;;;;5083301;28;20096;-75
2022/07/03 04:58:16;;;;;;;5.72;4.05;;;20.30;99.90;;;;;;5027050;28;20434;-78
2022/07/03 05:00:43;;;;;;;9.13;4.10;;;20.60;99.90;;;;;;5082909;28;20059;-78
2022/07/03 05:03:11;;;;;;;8.13;3.90;;;20.90;99.90;;;;;;5052401;28;20039;-80
2022/07/03 05:05:36;;;;;;;4.75;3.42;;;20.30;99.90;;;;;;5023056;28;20060;-77
2022/07/03 05:08:02;;;;;;;5.40;4.15;;;19.80;99.90;;;;;;5030456;28;20033;-78
2022/07/03 05:10:28;;;;;;;6.88;4.13;;;19.50;99.90;;;;;;5030530;28;20041;-78
2022/07/03 05:12:54;;;;;;;5.38;4.30;;;19.30;99.90;;;;;;5034661;28;20135;-80
2022/07/03 05:15:20;;;;;;;6.32;3.90;;;19.00;99.90;;;;;;5071098;28;20117;-76
2022/07/03 05:17:46;;;;;;;7.38;4.22;;;18.90;99.90;;;;;;5036634;28;20060;-79
2022/07/03 05:20:24;;;;;;;7.13;4.22;;;18.80;99.90;;;;;;5088594;28;20044;-79
2022/07/03 05:22:50;;;;;;;7.70;3.70;;;18.80;99.90;;;;;;5039333;28;20044;-79
2022/07/03 05:25:16;;;;;;;6.63;3.65;;;18.70;99.90;;;;;;5036338;28;20036;-77
2022/07/03 05:27:45;;;;;;;7.72;3.45;;;18.80;99.90;;;;;;5044313;28;20464;-79
2022/07/03 05:30:11;;;;;;;8.10;3.03;;;18.80;99.90;;;;;;5033286;28;20095;-76
2022/07/03 05:32:37;;;;;;;7.05;3.45;;;18.80;99.90;;;;;;5079516;28;20057;-76
2022/07/03 05:35:03;;;;;;;6.05;2.72;;;18.80;99.90;;;;;;5046921;28;20120;-74
2022/07/03 05:41:10;;;;;;;5.20;2.83;;;19.00;99.90;;;;;;5075945;28;20091;-76
2022/07/03 05:43:36;;;;;;;3.65;2.72;;;19.10;99.90;;;;;;5065568;28;20044;-76
2022/07/03 05:46:03;;;;;;;6.38;2.75;;;19.20;99.90;;;;;;5096579;28;20036;-79
2022/07/03 05:48:29;;;;;;;4.93;2.65;;;19.20;99.90;;;;;;5062090;28;20074;-81
2022/07/03 05:50:55;;;;;;;5.38;2.30;;;19.30;99.90;;;;;;5068318;28;20047;-79
2022/07/03 05:53:21;;;;;;;3.42;2.25;;;19.30;99.90;;;;;;5053340;28;20044;-78
2022/07/03 05:55:47;;;;;;;4.60;2.20;;;19.40;99.90;;;;;;5079212;28;20106;-79
2022/07/03 05:58:14;;;;;;;6.03;2.30;;;19.40;99.90;;;;;;5078577;28;20063;-77
2022/07/03 06:00:40;;;;;;;6.40;2.60;;;19.60;99.90;;;;;;5049515;28;20067;-79
2022/07/03 06:03:05;;;;;;;10.10;2.40;;;19.60;99.90;;;;;;5050753;28;20063;-77
2022/07/03 06:05:32;;;;;;;6.43;2.20;;;19.70;99.90;;;;;;5052040;28;20045;-78
2022/07/03 06:07:58;;;;;;;4.75;1.50;;;19.80;99.90;;;;;;5061298;28;20038;-80
2022/07/03 06:10:24;;;;;;;4.57;1.77;;;19.80;99.90;;;;;;5031507;28;20032;-80
2022/07/03 06:12:50;;;;;;;4.65;1.90;;;19.90;99.90;;;;;;5032724;28;20105;-81
2022/07/03 06:15:16;;;;;;;5.70;1.85;;;19.90;99.90;;;;;;5078901;28;20041;-80
2022/07/03 06:17:43;;;;;;;6.15;1.58;;;19.90;99.90;;;;;;5030756;28;20045;-80
2022/07/03 06:20:10;;;;;;;3.72;1.50;;;19.80;99.90;;;;;;5084536;28;20115;-78
2022/07/03 06:22:37;;;;;;;6.03;1.48;;;19.90;99.90;;;;;;5081415;28;20053;-81
2022/07/03 06:25:03;;;;;;;4.32;1.30;;;19.90;99.90;;;;;;5063562;28;20041;-78
2022/07/03 06:27:29;;;;;;;7.60;1.35;;;19.90;99.90;;;;;;5077190;28;20032;-76
2022/07/03 06:29:55;;;;;;;3.75;1.60;;;19.90;99.90;;;;;;5074602;28;20036;-80
2022/07/03 06:32:20;;;;;;;3.80;1.50;;;19.80;99.90;;;;;;5050710;28;20028;-78
2022/07/03 06:34:46;;;;;;;4.40;1.60;;;20.00;99.90;;;;;;5048926;28;20102;-77
2022/07/03 06:37:15;;;;;;;4.57;1.48;;;20.10;99.90;;;;;;5047815;28;20094;-77
2022/07/03 06:39:41;;;;;;;3.08;1.60;;;20.10;99.90;;;;;;5046167;28;20047;-77
2022/07/03 06:42:07;;;;;;;6.63;1.80;;;20.30;99.90;;;;;;5042688;28;20497;-77
2022/07/03 06:44:33;;;;;;;3.30;1.30;;;20.50;99.90;;;;;;5085079;28;20052;-77
2022/07/03 06:47:02;;;;;;;3.45;1.20;;;20.40;99.90;;;;;;5031110;28;20572;-77
2022/07/03 06:49:31;;;;;;;3.63;1.38;;;20.40;99.90;;;;;;5046024;28;20056;-77
2022/07/03 06:51:57;;;;;;;5.78;1.20;;;20.40;99.90;;;;;;5048899;28;20048;-78
2022/07/03 06:54:22;;;;;;;6.57;1.55;;;20.40;99.90;;;;;;5060977;28;20047;-79
2022/07/03 06:56:48;;;;;;;3.55;1.40;;;20.30;99.90;;;;;;5033221;28;20449;-76
2022/07/03 06:59:14;;;;;;;4.47;1.55;;;20.30;99.90;;;;;;5042838;28;20102;-74
2022/07/03 07:01:39;;;;;;;3.25;1.40;;;20.20;99.90;;;;;;5089928;28;20090;-74
2022/07/03 07:04:05;;;;;;;7.70;1.30;;;20.00;99.90;;;;;;5048054;28;20033;-75
2022/07/03 07:06:31;;;;;;;5.40;1.52;;;20.10;99.90;;;;;;5058785;28;20071;-73
2022/07/03 07:09:15;;;;;;;3.97;1.58;;;20.10;99.90;;;;;;5092721;28;20074;-74
2022/07/03 07:11:41;;;;;;;4.57;1.65;;;20.20;99.90;;;;;;5064973;28;20451;-76
2022/07/03 07:14:06;;;;;;;4.32;1.60;;;20.20;99.90;;;;;;5048365;28;20079;-78
2022/07/03 07:16:32;;;;;;;6.35;1.60;;;20.30;99.90;;;;;;5058100;28;20127;-78
2022/07/03 07:18:58;;;;;;;6.45;1.48;;;20.40;99.90;;;;;;5078722;28;20068;-77
2022/07/03 07:21:23;;;;;;;4.70;1.70;;;20.40;99.90;;;;;;5076155;28;20110;-77
2022/07/03 07:23:49;;;;;;;3.55;1.83;;;20.40;99.90;;;;;;5061269;28;20040;-76
2022/07/03 07:26:14;;;;;;;5.88;1.40;;;20.30;99.90;;;;;;5025112;28;20040;-76
2022/07/03 07:28:40;;;;;;;4.38;1.30;;;20.30;99.90;;;;;;5079667;28;20067;-75
2022/07/03 07:31:06;;;;;;;5.40;1.27;;;20.20;99.90;;;;;;5061027;28;20052;-77
2022/07/03 07:33:31;;;;;;;6.22;1.77;;;20.20;99.90;;;;;;5079359;28;20037;-74
2022/07/03 07:35:57;;;;;;;3.15;1.55;;;20.20;99.90;;;;;;5024790;28;20048;-75
2022/07/03 07:38:23;;;;;;;5.25;1.50;;;20.40;99.90;;;;;;5040436;28;20182;-75
2022/07/03 07:40:49;;;;;;;3.40;1.40;;;20.60;99.90;;;;;;5029862;28;20476;-76
2022/07/03 07:43:14;;;;;;;3.85;1.30;;;20.70;99.90;;;;;;5054608;28;20071;-76
2022/07/03 07:45:40;;;;;;;6.07;1.70;;;20.70;99.90;;;;;;5023109;28;20497;-76
2022/07/03 07:48:06;;;;;;;4.63;1.30;;;20.70;99.90;;;;;;5061089;28;20052;-79
2022/07/03 07:50:32;;;;;;;2.15;1.40;;;20.80;99.90;;;;;;5041290;28;20076;-77
2022/07/03 07:52:57;;;;;;;3.58;1.25;;;20.90;99.90;;;;;;5034869;28;20147;-75
2022/07/03 07:55:25;;;;;;;4.38;1.30;;;20.90;99.90;;;;;;5028363;28;20075;-77
2022/07/03 07:57:51;;;;;;;4.38;1.13;;;20.90;99.90;;;;;;5077450;28;20052;-77
2022/07/03 08:00:18;;;;;;;3.97;1.33;;;20.90;99.90;;;;;;5010416;28;20087;-76
2022/07/03 08:05:36;;;;;;;8.13;1.50;;;21.00;99.90;;;;;;5056694;28;20032;-78
2022/07/03 08:08:16;;;;;;;2.72;0.93;;;21.00;99.90;;;;;;5036230;28;20417;-77
2022/07/03 08:10:47;;;;;;;5.13;1.00;;;21.10;99.90;;;;;;5021754;28;20041;-76
2022/07/03 08:13:14;;;;;;;2.30;1.10;;;21.20;99.90;;;;;;5053583;28;20056;-77
2022/07/03 08:15:41;;;;;;;3.30;1.02;;;21.10;99.90;;;;;;5071800;28;20070;-77
2022/07/03 08:18:08;;;;;;;9.13;1.13;;;21.20;99.90;;;;;;5043075;28;20177;-75
2022/07/03 08:20:34;;;;;;;4.30;1.00;;;21.20;99.90;;;;;;5077970;28;20051;-75
2022/07/03 08:23:00;;;;;;;4.13;1.08;;;21.20;99.90;;;;;;5039796;28;20079;-76
2022/07/03 08:25:26;;;;;;;3.63;1.20;;;21.10;99.90;;;;;;5079031;28;21799;-76
2022/07/03 08:27:52;;;;;;;6.95;0.98;;;21.30;99.90;;;;;;5029765;28;20051;-76
2022/07/03 08:30:18;;;;;;;2.30;1.10;;;21.40;99.90;;;;;;5051930;28;20103;-75
2022/07/03 08:32:49;;;;;;;3.33;0.90;;;21.40;99.90;;;;;;5057398;28;20052;-78
2022/07/03 08:35:15;;;;;;;2.92;1.10;;;21.40;99.90;;;;;;5062573;28;20047;-81
2022/07/03 08:37:42;;;;;;;4.05;1.00;;;21.50;99.90;;;;;;5070654;28;20052;-77
2022/07/03 08:40:10;;;;;;;3.70;0.93;;;21.60;99.90;;;;;;5038005;28;20048;-77
2022/07/03 08:42:38;;;;;;;2.95;0.88;;;21.70;99.90;;;;;;5060274;28;20044;-76
2022/07/03 08:45:06;;;;;;;1.77;0.68;;;21.60;99.90;;;;;;5022126;28;20120;-75
2022/07/03 08:47:32;;;;;;;4.78;0.90;;;21.80;99.90;;;;;;5036979;28;20111;-76
2022/07/03 08:50:00;;;;;;;3.25;0.95;;;21.80;99.90;;;;;;5022590;28;20487;-78
2022/07/03 08:52:26;;;;;;;2.60;0.60;;;21.80;99.90;;;;;;5068971;28;20363;-78
2022/07/03 08:54:52;;;;;;;4.60;1.00;;;22.10;99.90;;;;;;5019790;28;20127;-77
2022/07/03 08:57:18;;;;;;;2.90;0.70;;;22.30;99.90;;;;;;5038892;28;20174;-79
2022/07/03 08:59:50;;;;;;;3.10;0.70;;;22.40;99.90;;;;;;5067735;28;20054;-78
2022/07/03 09:02:17;;;;;;;1.75;0.70;;;22.50;99.90;;;;;;5021764;28;20053;-74
2022/07/03 09:04:46;;;;;;;4.97;0.90;;;22.50;99.90;;;;;;5024036;28;20056;-77
2022/07/03 09:07:13;;;;;;;5.50;0.88;;;22.60;99.90;;;;;;5073044;28;20037;-77
2022/07/03 09:09:39;;;;;;;1.52;0.60;;;22.80;99.90;;;;;;5070736;28;20316;-77
2022/07/03 09:12:05;;;;;;;1.50;0.70;;;22.80;99.90;;;;;;5038118;28;20282;-77
2022/07/03 09:14:32;;;;;;;1.95;0.77;;;22.80;99.90;;;;;;5057639;28;20573;-77
2022/07/03 09:16:59;;;;;;;4.68;0.90;;;22.90;99.90;;;;;;5075520;28;20348;-76
2022/07/03 09:19:47;;;;;;;2.40;0.85;;;22.90;99.90;;;;;;5073165;28;20047;-76
2022/07/03 09:22:20;;;;;;;1.50;0.70;;;22.90;99.90;;;;;;5035941;28;20049;-76
2022/07/03 09:24:46;;;;;;;2.00;0.50;;;23.00;99.90;;;;;;5069695;28;20033;-77
2022/07/03 09:27:19;;;;;;;1.50;0.60;;;22.90;99.90;;;;;;5036651;28;20833;-77
2022/07/03 09:30:02;;;;;;;1.25;0.68;;;23.00;99.90;;;;;;5055214;28;20141;-80
2022/07/03 09:32:34;;;;;;;7.40;1.13;;;23.30;99.90;;;;;;5052083;28;20091;-79
2022/07/03 09:35:20;;;;;;;2.33;0.75;;;23.30;99.90;;;;;;5054602;28;20044;-78
2022/07/03 09:38:06;;;;;;;0.93;0.70;;;23.40;99.90;;;;;;5050283;28;20052;-79
2022/07/03 09:40:56;;;;;;;2.72;0.75;;;23.50;99.90;;;;;;5044212;28;20053;-80
2022/07/03 09:43:28;;;;;;;4.55;0.85;;;23.60;99.90;;;;;;5058294;28;20048;-78
2022/07/03 09:45:59;;;;;;;1.58;0.65;;;23.80;99.90;;;;;;5057792;28;20369;-77
2022/07/03 09:48:32;;;;;;;1.67;0.70;;;24.00;99.90;;;;;;5027814;28;20044;-78
2022/07/03 09:51:25;;;;;;;3.50;0.98;;;24.10;99.90;;;;;;5081033;28;20389;-75
2022/07/03 09:53:59;;;;;;;2.95;0.93;;;24.10;99.90;;;;;;5032300;28;20045;-74
2022/07/03 09:56:27;;;;;;;2.60;0.70;;;24.40;99.90;;;;;;5053757;28;20095;-78
2022/07/03 09:59:08;;;;;;;2.80;0.90;;;24.40;99.60;;;;;;5042989;28;20072;-81
2022/07/03 10:01:35;;;;;;;7.68;0.70;;;24.10;99.70;;;;;;5041589;28;20056;-77
2022/07/03 10:04:22;;;;;;;1.25;0.70;;;23.70;99.90;;;;;;5061783;28;20427;-77
2022/07/03 10:06:55;;;;;;;4.38;0.85;;;23.50;99.90;;;;;;5012368;28;20041;-75
2022/07/03 10:09:28;;;;;;;2.47;0.75;;;23.50;99.90;;;;;;5045000;28;20049;-78
2022/07/03 10:11:55;;;;;;;6.07;0.82;;;23.10;99.90;;;;;;5039092;28;20371;-75
2022/07/03 10:14:32;;;;;;;3.92;0.57;;;23.30;99.90;;;;;;5042544;28;20049;-75
2022/07/03 10:17:00;;;;;;;1.20;0.65;;;23.50;99.90;;;;;;5031510;28;20111;-78
2022/07/03 10:19:29;;;;;;;5.43;0.90;;;23.50;99.90;;;;;;5085138;28;20194;-75
2022/07/03 10:22:06;;;;;;;2.65;0.68;;;23.40;99.90;;;;;;5030314;28;20056;-79
2022/07/03 10:24:32;;;;;;;3.20;0.85;;;23.80;99.90;;;;;;5038805;28;20036;-76
2022/07/03 10:26:59;;;;;;;6.53;0.80;;;24.00;99.90;;;;;;5052115;28;20492;-76
2022/07/03 10:29:26;;;;;;;1.40;0.90;;;24.30;99.90;;;;;;5053966;28;20048;-74
2022/07/03 10:31:52;;;;;;;1.98;0.77;;;24.70;99.90;;;;;;5048551;28;20049;-78
2022/07/03 10:34:25;;;;;;;3.40;1.20;;;24.30;99.90;;;;;;5068710;28;20103;-75
2022/07/03 10:37:00;;;;;;;4.55;0.90;;;24.00;99.90;;;;;;5085728;28;20037;-77
2022/07/03 10:39:55;;;;;;;1.55;0.65;;;24.40;99.90;;;;;;5034783;28;20048;-73
2022/07/03 10:45:16;;;;;;;3.60;0.70;;;24.60;99.90;;;;;;5050911;28;20536;-75
2022/07/03 10:47:45;;;;;;;2.05;0.73;;;24.70;99.90;;;;;;5048184;28;20131;-77
2022/07/03 10:50:15;;;;;;;5.10;0.80;;;24.90;99.80;;;;;;5063610;28;20484;-77
2022/07/03 10:52:44;;;;;;;5.03;1.08;;;24.40;99.40;;;;;;5065223;28;20503;-76
2022/07/03 10:55:11;;;;;;;3.78;0.80;;;24.60;99.90;;;;;;5050414;28;20495;-75
2022/07/03 10:57:38;;;;;;;4.05;1.02;;;24.90;99.70;;;;;;5033778;28;20056;-78
2022/07/03 11:00:18;;;;;;;3.38;0.80;;;25.20;99.80;;;;;;5043901;28;20025;-76
2022/07/03 11:02:49;;;;;;;3.35;1.10;;;25.50;99.50;;;;;;5085962;28;20052;-75
2022/07/03 11:05:18;;;;;;;3.55;0.70;;;25.70;99.00;;;;;;5036739;28;20059;-74
2022/07/03 11:07:53;;;;;;;3.08;0.90;;;25.70;98.60;;;;;;5087735;28;20555;-75
2022/07/03 11:14:19;;;;;;;3.67;0.80;;;25.50;98.90;;;;;;5062094;28;20040;-72
2022/07/03 11:16:46;;;;;;;2.28;1.02;;;25.60;99.50;;;;;;5053098;28;20037;-78
2022/07/03 11:19:11;;;;;;;4.97;0.80;;;25.20;99.50;;;;;;5081257;28;20128;-74
2022/07/03 11:21:47;;;;;;;2.80;0.90;;;24.90;99.90;;;;;;5027111;28;20139;-78
2022/07/03 11:28:31;;;;;;;2.25;0.70;;;25.60;99.30;;;;;;5040717;28;20417;-75
2022/07/03 11:31:16;;;;;;;3.55;1.17;;;25.00;98.00;;;;;;5032413;28;20056;-79
2022/07/03 11:33:54;;;;;;;6.40;1.20;;;24.60;99.50;;;;;;5074173;28;20032;-76
2022/07/03 11:36:27;;;;;;;8.35;1.02;;;25.00;99.70;;;;;;5031144;28;20103;-76
2022/07/03 11:38:57;;;;;;;3.38;1.10;;;25.10;99.30;;;;;;5057241;28;20065;-77
2022/07/03 11:41:24;;;;;;;4.45;0.98;;;25.00;99.40;;;;;;5079354;28;20056;-78
2022/07/03 11:44:02;;;;;;;9.60;1.35;;;25.20;99.10;;;;;;5042367;28;20166;-76
2022/07/03 11:46:29;;;;;;;6.95;1.52;;;25.00;99.90;;;;;;5048647;28;20033;-77
2022/07/03 11:49:16;;;;;;;3.53;1.42;;;24.90;99.90;;;;;;5076085;28;20480;-78
2022/07/03 11:52:00;;;;;;;6.22;1.75;;;24.80;99.90;;;;;;5049613;28;20051;-77
2022/07/03 11:54:30;;;;;;;4.97;1.30;;;25.00;99.90;;;;;;5023563;28;20045;-77
2022/07/03 11:56:56;;;;;;;7.47;1.50;;;25.20;99.90;;;;;;5076588;28;20500;-78
2022/07/03 11:59:22;;;;;;;4.40;1.17;;;25.00;99.90;;;;;;5034058;28;20057;-79
2022/07/03 12:01:48;;;;;;;4.85;1.40;;;24.80;99.90;;;;;;5070763;28;20049;-77
2022/07/03 12:04:16;;;;;;;3.83;1.33;;;24.70;99.90;;;;;;5025752;28;20186;-79
2022/07/03 12:06:49;;;;;;;4.85;1.40;;;24.40;99.90;;;;;;5041848;28;20186;-74
2022/07/03 12:09:35;;;;;;;6.50;1.70;;;24.20;99.90;;;;;;5026198;28;20045;-77
2022/07/03 12:12:07;;;;;;;2.75;1.10;;;24.30;99.90;;;;;;5072627;28;20057;-74
2022/07/03 12:14:48;;;;;;;4.72;1.08;;;24.90;99.90;;;;;;5043534;28;20053;-77
2022/07/03 12:17:20;;;;;;;9.45;1.40;;;25.50;99.90;;;;;;5024582;28;20131;-77
2022/07/03 12:20:02;;;;;;;5.45;1.30;;;25.40;99.90;;;;;;5061871;28;20047;-76
2022/07/03 12:22:31;;;;;;;13.32;1.10;;;25.90;99.80;;;;;;5034090;28;20049;-74
2022/07/03 12:25:30;;;;;;;4.38;1.17;;;26.40;99.80;;;;;;5042601;28;20041;-76
2022/07/03 12:27:56;;;;;;;8.70;1.40;;;26.30;99.00;;;;;;5066232;28;20080;-75
2022/07/03 12:30:25;;;;;;;3.25;1.08;;;25.70;99.90;;;;;;5034881;28;20107;-77
2022/07/03 12:32:51;;;;;;;5.72;1.42;;;26.10;99.60;;;;;;5040752;28;20053;-74
2022/07/03 12:35:25;;;;;;;5.43;1.30;;;26.30;99.30;;;;;;5053100;28;20076;-76
2022/07/03 12:37:51;;;;;;;6.95;1.30;;;26.20;99.10;;;;;;5043940;28;20044;-78
2022/07/03 12:40:18;;;;;;;9.85;1.60;;;26.20;99.70;;;;;;5045724;28;20059;-75
2022/07/03 12:42:48;;;;;;;3.67;1.10;;;25.70;99.40;;;;;;5040114;28;20067;-79
2022/07/03 12:45:15;;;;;;;5.13;1.23;;;25.50;99.60;;;;;;5059768;28;20372;-78
2022/07/03 12:47:41;;;;;;;4.03;1.23;;;25.10;99.60;;;;;;5058521;28;20456;-79
2022/07/03 12:50:09;;;;;;;3.28;1.05;;;25.00;99.90;;;;;;5041689;28;20218;-78
2022/07/03 12:52:50;;;;;;;2.63;1.00;;;25.70;99.90;;;;;;5009159;28;20056;-79
2022/07/03 12:55:29;;;;;;;6.38;1.30;;;25.70;99.80;;;;;;5059708;28;20484;-76
2022/07/03 13:01:02;;;;;;;3.83;1.25;;;25.70;99.90;;;;;;5031808;28;20045;-80
2022/07/03 13:03:29;;;;;;;5.00;1.13;;;26.00;99.90;;;;;;5056830;28;20063;-78
2022/07/03 13:05:55;;;;;;;6.25;1.42;;;26.30;99.70;;;;;;5041401;28;20068;-76
2022/07/03 13:08:20;;;;;;;5.38;1.02;;;26.50;99.90;;;;;;5072744;28;20487;-78
2022/07/03 13:10:57;;;;;;;3.00;1.08;;;26.30;99.20;;;;;;5042217;28;20111;-76
2022/07/03 13:13:24;;;;;;;3.15;0.90;;;26.50;99.10;;;;;;5039520;28;20500;-76
2022/07/03 13:15:50;;;;;;;4.55;1.27;;;26.70;99.00;;;;;;5031913;28;20143;-77
2022/07/03 13:18:16;;;;;;;2.47;0.88;;;26.40;98.60;;;;;;5053132;28;20060;-79
2022/07/03 13:20:41;;;;;;;6.18;1.20;;;26.80;98.40;;;;;;5040090;28;20547;-76
2022/07/03 13:23:10;;;;;;;2.33;1.00;;;26.80;98.30;;;;;;5069912;28;20152;-76
2022/07/03 13:25:39;;;;;;;2.92;1.15;;;27.10;98.60;;;;;;5054893;28;20131;-79
2022/07/03 13:28:15;;;;;;;4.45;1.20;;;26.20;99.20;;;;;;5024743;28;20138;-77
2022/07/03 13:30:43;;;;;;;4.15;1.00;;;25.70;99.90;;;;;;5054389;28;20064;-81
2022/07/03 13:33:10;;;;;;;2.58;0.85;;;25.50;99.90;;;;;;5045645;28;20053;-79